Superfast Baleares — EBXD — position and weather

sailwx.info

Track history (hours):
 
Tides and Currents Weather Stations Pressure Air Temp Water Temp Dewpoint Dewpoint Depression Visibility Wind Speed Wind Dir Waves Ship Positions

Superfast Baleares

Last reported at 2015-Sep-02 00:29 UTC. Time now 2015-Sep-02 02:31 UTC.
Position N 37°34' E 010°18'.

Length 210 m; draft 6.1 m.

Type: Cargo ship. MMSI: 225405000.

Date/timePositionNaut miles runAvg speedWind from/ knotsBaromVisibWave heightAir tempDewpointWater temp
2015-Sep-02 00:29N 37°34' E 010°18'2914.8
2015-Sep-01 22:33N 37°06' E 010°25'1615.8
2015-Sep-01 21:32N 36°50' E 010°24'6 1.3
2015-Sep-01 16:33N 36°48' E 010°16'0 0.0
2015-Sep-01 13:23N 36°48' E 010°16'35 1.0
2015-Aug-31 02:09N 37°23' E 010°20'812.9
2015-Aug-31 01:33N 37°30' E 010°16'2812.3
2015-Aug-30 23:16N 37°45' E 009°46'913.0
2015-Aug-30 22:33N 37°51' E 009°37'1312.8
2015-Aug-30 21:32N 38°00' E 009°25'1212.2
2015-Aug-30 20:33N 38°09' E 009°15'1212.1
2015-Aug-30 19:33N 38°17' E 009°03'1212.1
2015-Aug-30 18:33N 38°25' E 008°52'1212.2
2015-Aug-30 17:33N 38°34' E 008°40'2912.0
2015-Aug-30 15:09N 38°55' E 008°15'912.4
2015-Aug-30 14:24N 39°01' E 008°07'28412.5
2015-Aug-29 15:33N 43°12' E 005°09'1110.8
2015-Aug-29 14:33N 43°21' E 005°18'3 2.9
2015-Aug-29 13:33N 43°19' E 005°21'0 0.0
2015-Aug-29 12:33N 43°19' E 005°21'0 0.0
2015-Aug-29 11:33N 43°19' E 005°21'0 0.0
2015-Aug-29 10:33N 43°19' E 005°21'0 0.0
2015-Aug-29 09:33N 43°19' E 005°21'0 0.0
2015-Aug-29 08:33N 43°19' E 005°21'0 0.0
2015-Aug-29 07:33N 43°19' E 005°21'0 0.0
2015-Aug-29 06:33N 43°19' E 005°21'0 0.0
2015-Aug-29 05:33N 43°19' E 005°21'2 1.5
2015-Aug-29 04:33N 43°20' E 005°20'1111.1
2015-Aug-29 03:33N 43°11' E 005°11'4815.9
2015-Aug-29 00:31N 42°28' E 005°41'1515.8
2015-Aug-28 23:33N 42°15' E 005°51'7815.5
2015-Aug-28 18:33N 41°06' E 006°39'1615.8
2015-Aug-28 17:34N 40°52' E 006°49'228 5.3
2015-Aug-26 22:32N 37°47' E 009°40'1414.4
2015-Aug-26 21:32N 37°57' E 009°27'1414.5
2015-Aug-26 20:33N 38°06' E 009°13'1414.3
2015-Aug-26 19:33N 38°16' E 008°59'1414.4
2015-Aug-26 18:33N 38°25' E 008°45'1414.1
2015-Aug-26 17:33N 38°34' E 008°32'31214.9
2015-Aug-25 20:33N 43°07' E 005°10'1414.3
2015-Aug-25 19:33N 43°20' E 005°18'3 2.9
2015-Aug-25 18:33N 43°19' E 005°21'0 0.0
2015-Aug-25 17:33N 43°19' E 005°21'0 0.0
2015-Aug-25 16:33N 43°19' E 005°21'0 0.0
2015-Aug-25 15:33N 43°19' E 005°21'0 0.0
2015-Aug-25 14:33N 43°19' E 005°21'0 0.0
2015-Aug-25 13:33N 43°19' E 005°21'0 0.0
2015-Aug-25 12:33N 43°19' E 005°21'0 0.0
2015-Aug-25 11:33N 43°19' E 005°21'0 0.0
2015-Aug-25 10:33N 43°19' E 005°21'0 0.0
2015-Aug-25 09:33N 43°19' E 005°21'0 0.0
2015-Aug-25 08:33N 43°19' E 005°21'0 0.0
2015-Aug-25 07:33N 43°19' E 005°21'0 0.0
2015-Aug-25 06:33N 43°19' E 005°21'0 0.0
2015-Aug-25 05:33N 43°19' E 005°21'0 0.0
2015-Aug-25 04:33N 43°19' E 005°21'0 0.0
2015-Aug-25 03:33N 43°19' E 005°21'0 0.0
2015-Aug-25 02:33N 43°19' E 005°21'0 0.0
2015-Aug-25 01:33N 43°19' E 005°21'0 0.0
2015-Aug-25 00:33N 43°19' E 005°21'0 0.0
2015-Aug-24 23:33N 43°19' E 005°21'0 0.0
2015-Aug-24 22:33N 43°19' E 005°21'0 0.0
2015-Aug-24 21:33N 43°19' E 005°21'0 0.0
2015-Aug-24 20:33N 43°19' E 005°21'0 0.0
2015-Aug-24 19:33N 43°19' E 005°21'0 0.0
2015-Aug-24 18:33N 43°19' E 005°21'0 0.0
2015-Aug-24 17:33N 43°19' E 005°21'0 0.0
2015-Aug-24 16:33N 43°19' E 005°21'0 0.0
2015-Aug-24 15:33N 43°19' E 005°21'0 0.0
2015-Aug-24 14:33N 43°19' E 005°21'0 0.0
2015-Aug-24 13:33N 43°19' E 005°21'0 0.0
2015-Aug-24 12:33N 43°19' E 005°21'0 0.0
2015-Aug-24 11:33N 43°19' E 005°21'0 0.0
2015-Aug-24 10:33N 43°19' E 005°21'0 0.0
2015-Aug-24 09:33N 43°19' E 005°21'0 0.0
2015-Aug-24 08:33N 43°19' E 005°21'0 0.0
2015-Aug-24 07:33N 43°19' E 005°21'0 0.0
2015-Aug-24 06:33N 43°19' E 005°21'0 0.0
2015-Aug-24 05:33N 43°19' E 005°21'0 0.2
2015-Aug-24 04:33N 43°19' E 005°21'9 8.6
2015-Aug-24 03:33N 43°16' E 005°11'43616.1
2015-Aug-23 00:31N 37°12' E 010°25'  
Track history (hours):
 
Tides and Currents Weather Stations Pressure Air Temp Water Temp Dewpoint Dewpoint Depression Visibility Wind Speed Wind Dir Waves Ship Positions

Superfast Baleares

Last reported at 2015-Sep-02 00:29 UTC. Time now 2015-Sep-02 02:31 UTC.
Position N 37°34' E 010°18'.

Length 210 m; draft 6.1 m.

Type: Cargo ship. MMSI: 225405000.

Date/timePositionNaut miles runAvg speedWind from/ knotsBaromVisibWave heightAir tempDewpointWater temp
2015-Sep-02 00:29N 37°34' E 010°18'2914.8
2015-Sep-01 22:33N 37°06' E 010°25'1615.8
2015-Sep-01 21:32N 36°50' E 010°24'6 1.3
2015-Sep-01 16:33N 36°48' E 010°16'0 0.0
2015-Sep-01 13:23N 36°48' E 010°16'35 1.0
2015-Aug-31 02:09N 37°23' E 010°20'812.9
2015-Aug-31 01:33N 37°30' E 010°16'2812.3
2015-Aug-30 23:16N 37°45' E 009°46'913.0
2015-Aug-30 22:33N 37°51' E 009°37'1312.8
2015-Aug-30 21:32N 38°00' E 009°25'1212.2
2015-Aug-30 20:33N 38°09' E 009°15'1212.1
2015-Aug-30 19:33N 38°17' E 009°03'1212.1
2015-Aug-30 18:33N 38°25' E 008°52'1212.2
2015-Aug-30 17:33N 38°34' E 008°40'2912.0
2015-Aug-30 15:09N 38°55' E 008°15'912.4
2015-Aug-30 14:24N 39°01' E 008°07'28412.5
2015-Aug-29 15:33N 43°12' E 005°09'1110.8
2015-Aug-29 14:33N 43°21' E 005°18'3 2.9
2015-Aug-29 13:33N 43°19' E 005°21'0 0.0
2015-Aug-29 12:33N 43°19' E 005°21'0 0.0
2015-Aug-29 11:33N 43°19' E 005°21'0 0.0
2015-Aug-29 10:33N 43°19' E 005°21'0 0.0
2015-Aug-29 09:33N 43°19' E 005°21'0 0.0
2015-Aug-29 08:33N 43°19' E 005°21'0 0.0
2015-Aug-29 07:33N 43°19' E 005°21'0 0.0
2015-Aug-29 06:33N 43°19' E 005°21'0 0.0
2015-Aug-29 05:33N 43°19' E 005°21'2 1.5
2015-Aug-29 04:33N 43°20' E 005°20'1111.1
2015-Aug-29 03:33N 43°11' E 005°11'4815.9
2015-Aug-29 00:31N 42°28' E 005°41'1515.8
2015-Aug-28 23:33N 42°15' E 005°51'7815.5
2015-Aug-28 18:33N 41°06' E 006°39'1615.8
2015-Aug-28 17:34N 40°52' E 006°49'228 5.3
2015-Aug-26 22:32N 37°47' E 009°40'1414.4
2015-Aug-26 21:32N 37°57' E 009°27'1414.5
2015-Aug-26 20:33N 38°06' E 009°13'1414.3
2015-Aug-26 19:33N 38°16' E 008°59'1414.4
2015-Aug-26 18:33N 38°25' E 008°45'1414.1
2015-Aug-26 17:33N 38°34' E 008°32'31214.9
2015-Aug-25 20:33N 43°07' E 005°10'1414.3
2015-Aug-25 19:33N 43°20' E 005°18'3 2.9
2015-Aug-25 18:33N 43°19' E 005°21'0 0.0
2015-Aug-25 17:33N 43°19' E 005°21'0 0.0
2015-Aug-25 16:33N 43°19' E 005°21'0 0.0
2015-Aug-25 15:33N 43°19' E 005°21'0 0.0
2015-Aug-25 14:33N 43°19' E 005°21'0 0.0
2015-Aug-25 13:33N 43°19' E 005°21'0 0.0
2015-Aug-25 12:33N 43°19' E 005°21'0 0.0
2015-Aug-25 11:33N 43°19' E 005°21'0 0.0
2015-Aug-25 10:33N 43°19' E 005°21'0 0.0
2015-Aug-25 09:33N 43°19' E 005°21'0 0.0
2015-Aug-25 08:33N 43°19' E 005°21'0 0.0
2015-Aug-25 07:33N 43°19' E 005°21'0 0.0
2015-Aug-25 06:33N 43°19' E 005°21'0 0.0
2015-Aug-25 05:33N 43°19' E 005°21'0 0.0
2015-Aug-25 04:33N 43°19' E 005°21'0 0.0
2015-Aug-25 03:33N 43°19' E 005°21'0 0.0
2015-Aug-25 02:33N 43°19' E 005°21'0 0.0
2015-Aug-25 01:33N 43°19' E 005°21'0 0.0
2015-Aug-25 00:33N 43°19' E 005°21'0 0.0
2015-Aug-24 23:33N 43°19' E 005°21'0 0.0
2015-Aug-24 22:33N 43°19' E 005°21'0 0.0
2015-Aug-24 21:33N 43°19' E 005°21'0 0.0
2015-Aug-24 20:33N 43°19' E 005°21'0 0.0
2015-Aug-24 19:33N 43°19' E 005°21'0 0.0
2015-Aug-24 18:33N 43°19' E 005°21'0 0.0
2015-Aug-24 17:33N 43°19' E 005°21'0 0.0
2015-Aug-24 16:33N 43°19' E 005°21'0 0.0
2015-Aug-24 15:33N 43°19' E 005°21'0 0.0
2015-Aug-24 14:33N 43°19' E 005°21'0 0.0
2015-Aug-24 13:33N 43°19' E 005°21'0 0.0
2015-Aug-24 12:33N 43°19' E 005°21'0 0.0
2015-Aug-24 11:33N 43°19' E 005°21'0 0.0
2015-Aug-24 10:33N 43°19' E 005°21'0 0.0
2015-Aug-24 09:33N 43°19' E 005°21'0 0.0
2015-Aug-24 08:33N 43°19' E 005°21'0 0.0
2015-Aug-24 07:33N 43°19' E 005°21'0 0.0
2015-Aug-24 06:33N 43°19' E 005°21'0 0.0
2015-Aug-24 05:33N 43°19' E 005°21'0 0.2
2015-Aug-24 04:33N 43°19' E 005°21'9 8.6
2015-Aug-24 03:33N 43°16' E 005°11'43616.1
2015-Aug-23 00:31N 37°12' E 010°25'  

Dump ship's entire track history